sensor_id;sensor_type;location;lat;lon;timestamp;P1;durP1;ratioP1;P2;durP2;ratioP2
40058;SDS011;25763;49.972;8.568;2023-07-30T00:01:37;42.90;;;40.60;;
40058;SDS011;25763;49.972;8.568;2023-07-30T00:04:02;42.95;;;40.72;;
40058;SDS011;25763;49.972;8.568;2023-07-30T00:06:28;43.00;;;40.80;;
40058;SDS011;25763;49.972;8.568;2023-07-30T00:08:53;42.22;;;40.08;;
40058;SDS011;25763;49.972;8.568;2023-07-30T00:11:19;40.65;;;38.35;;
40058;SDS011;25763;49.972;8.568;2023-07-30T00:13:44;36.03;;;34.17;;
40058;SDS011;25763;49.972;8.568;2023-07-30T00:16:09;36.00;;;34.10;;
40058;SDS011;25763;49.972;8.568;2023-07-30T00:18:35;36.25;;;34.40;;
40058;SDS011;25763;49.972;8.568;2023-07-30T00:21:00;37.80;;;35.88;;
40058;SDS011;25763;49.972;8.568;2023-07-30T00:23:25;34.03;;;32.25;;
40058;SDS011;25763;49.972;8.568;2023-07-30T00:25:51;32.15;;;30.48;;
40058;SDS011;25763;49.972;8.568;2023-07-30T00:28:16;34.40;;;32.63;;
40058;SDS011;25763;49.972;8.568;2023-07-30T00:30:41;33.00;;;31.30;;
40058;SDS011;25763;49.972;8.568;2023-07-30T00:33:07;38.38;;;36.42;;
40058;SDS011;25763;49.972;8.568;2023-07-30T00:35:32;37.45;;;35.47;;
40058;SDS011;25763;49.972;8.568;2023-07-30T00:37:57;36.17;;;34.30;;
40058;SDS011;25763;49.972;8.568;2023-07-30T00:40:23;35.80;;;33.83;;
40058;SDS011;25763;49.972;8.568;2023-07-30T00:42:48;36.15;;;34.28;;
40058;SDS011;25763;49.972;8.568;2023-07-30T00:45:13;36.30;;;34.40;;
40058;SDS011;25763;49.972;8.568;2023-07-30T00:47:39;37.80;;;35.85;;
40058;SDS011;25763;49.972;8.568;2023-07-30T00:50:06;36.40;;;34.50;;
40058;SDS011;25763;49.972;8.568;2023-07-30T00:52:32;35.25;;;33.42;;
40058;SDS011;25763;49.972;8.568;2023-07-30T00:54:59;33.78;;;32.03;;
40058;SDS011;25763;49.972;8.568;2023-07-30T00:57:27;30.70;;;29.10;;
40058;SDS011;25763;49.972;8.568;2023-07-30T00:59:52;29.98;;;28.38;;
40058;SDS011;25763;49.972;8.568;2023-07-30T01:02:18;30.65;;;29.08;;
40058;SDS011;25763;49.972;8.568;2023-07-30T01:04:44;31.65;;;30.00;;
40058;SDS011;25763;49.972;8.568;2023-07-30T01:07:09;27.05;;;25.60;;
40058;SDS011;25763;49.972;8.568;2023-07-30T01:09:35;28.77;;;27.17;;
40058;SDS011;25763;49.972;8.568;2023-07-30T01:12:00;29.30;;;27.70;;
40058;SDS011;25763;49.972;8.568;2023-07-30T01:14:28;26.15;;;24.77;;
40058;SDS011;25763;49.972;8.568;2023-07-30T01:16:54;26.60;;;25.17;;
40058;SDS011;25763;49.972;8.568;2023-07-30T01:19:19;29.75;;;28.15;;
40058;SDS011;25763;49.972;8.568;2023-07-30T01:21:45;26.75;;;25.33;;
40058;SDS011;25763;49.972;8.568;2023-07-30T01:24:10;26.45;;;25.05;;
40058;SDS011;25763;49.972;8.568;2023-07-30T01:26:40;26.83;;;25.42;;
40058;SDS011;25763;49.972;8.568;2023-07-30T01:29:12;26.23;;;24.83;;
40058;SDS011;25763;49.972;8.568;2023-07-30T01:31:41;27.60;;;26.10;;
40058;SDS011;25763;49.972;8.568;2023-07-30T01:34:09;24.73;;;23.42;;
40058;SDS011;25763;49.972;8.568;2023-07-30T01:36:36;24.65;;;23.35;;
40058;SDS011;25763;49.972;8.568;2023-07-30T01:39:03;26.55;;;25.15;;
40058;SDS011;25763;49.972;8.568;2023-07-30T01:41:28;23.13;;;21.88;;
40058;SDS011;25763;49.972;8.568;2023-07-30T01:43:54;23.45;;;22.10;;
40058;SDS011;25763;49.972;8.568;2023-07-30T01:46:19;23.98;;;22.70;;
40058;SDS011;25763;49.972;8.568;2023-07-30T01:48:44;23.50;;;22.25;;
40058;SDS011;25763;49.972;8.568;2023-07-30T01:51:10;25.50;;;24.05;;
40058;SDS011;25763;49.972;8.568;2023-07-30T01:53:35;24.70;;;23.38;;
40058;SDS011;25763;49.972;8.568;2023-07-30T01:56:00;22.73;;;21.42;;
40058;SDS011;25763;49.972;8.568;2023-07-30T01:58:26;24.13;;;22.83;;
40058;SDS011;25763;49.972;8.568;2023-07-30T02:00:51;23.80;;;22.38;;
40058;SDS011;25763;49.972;8.568;2023-07-30T02:03:16;26.10;;;24.73;;
40058;SDS011;25763;49.972;8.568;2023-07-30T02:05:42;24.58;;;23.27;;
40058;SDS011;25763;49.972;8.568;2023-07-30T02:08:07;24.05;;;22.75;;
40058;SDS011;25763;49.972;8.568;2023-07-30T02:10:32;24.75;;;23.42;;
40058;SDS011;25763;49.972;8.568;2023-07-30T02:12:58;24.77;;;23.48;;
40058;SDS011;25763;49.972;8.568;2023-07-30T02:15:24;24.77;;;23.45;;
40058;SDS011;25763;49.972;8.568;2023-07-30T02:17:49;25.83;;;24.45;;
40058;SDS011;25763;49.972;8.568;2023-07-30T02:20:14;24.83;;;23.50;;
40058;SDS011;25763;49.972;8.568;2023-07-30T02:22:40;23.58;;;22.33;;
40058;SDS011;25763;49.972;8.568;2023-07-30T02:25:05;25.85;;;24.45;;
40058;SDS011;25763;49.972;8.568;2023-07-30T02:27:31;27.33;;;25.85;;
40058;SDS011;25763;49.972;8.568;2023-07-30T02:29:56;25.30;;;23.90;;
40058;SDS011;25763;49.972;8.568;2023-07-30T02:32:22;24.75;;;23.42;;
40058;SDS011;25763;49.972;8.568;2023-07-30T02:34:47;23.75;;;22.50;;
40058;SDS011;25763;49.972;8.568;2023-07-30T02:37:13;24.80;;;23.48;;
40058;SDS011;25763;49.972;8.568;2023-07-30T02:39:38;27.38;;;25.92;;
40058;SDS011;25763;49.972;8.568;2023-07-30T02:42:03;33.35;;;31.63;;
40058;SDS011;25763;49.972;8.568;2023-07-30T02:44:29;42.15;;;40.03;;
40058;SDS011;25763;49.972;8.568;2023-07-30T02:46:54;39.03;;;37.03;;
40058;SDS011;25763;49.972;8.568;2023-07-30T02:49:20;34.33;;;32.50;;
40058;SDS011;25763;49.972;8.568;2023-07-30T02:51:45;37.08;;;35.17;;
40058;SDS011;25763;49.972;8.568;2023-07-30T02:54:13;32.60;;;30.92;;
40058;SDS011;25763;49.972;8.568;2023-07-30T02:56:39;32.28;;;30.60;;
40058;SDS011;25763;49.972;8.568;2023-07-30T02:59:04;33.47;;;31.73;;
40058;SDS011;25763;49.972;8.568;2023-07-30T03:01:29;30.38;;;28.75;;
40058;SDS011;25763;49.972;8.568;2023-07-30T03:03:55;29.60;;;28.02;;
40058;SDS011;25763;49.972;8.568;2023-07-30T03:06:20;29.23;;;27.67;;
40058;SDS011;25763;49.972;8.568;2023-07-30T03:08:45;31.70;;;30.00;;
40058;SDS011;25763;49.972;8.568;2023-07-30T03:11:11;33.22;;;31.52;;
40058;SDS011;25763;49.972;8.568;2023-07-30T03:13:38;29.35;;;27.83;;
40058;SDS011;25763;49.972;8.568;2023-07-30T03:16:03;32.95;;;31.23;;
40058;SDS011;25763;49.972;8.568;2023-07-30T03:18:28;36.72;;;34.83;;
40058;SDS011;25763;49.972;8.568;2023-07-30T03:20:58;32.03;;;30.33;;
40058;SDS011;25763;49.972;8.568;2023-07-30T03:23:26;27.83;;;26.23;;
40058;SDS011;25763;49.972;8.568;2023-07-30T03:25:52;27.25;;;25.80;;
40058;SDS011;25763;49.972;8.568;2023-07-30T03:28:17;32.03;;;30.38;;
40058;SDS011;25763;49.972;8.568;2023-07-30T03:30:43;30.55;;;28.98;;
40058;SDS011;25763;49.972;8.568;2023-07-30T03:33:08;33.75;;;32.00;;
40058;SDS011;25763;49.972;8.568;2023-07-30T03:35:33;30.83;;;29.23;;
40058;SDS011;25763;49.972;8.568;2023-07-30T03:37:59;31.77;;;30.13;;
40058;SDS011;25763;49.972;8.568;2023-07-30T03:40:24;30.70;;;29.10;;
40058;SDS011;25763;49.972;8.568;2023-07-30T03:42:49;33.55;;;31.80;;
40058;SDS011;25763;49.972;8.568;2023-07-30T03:45:15;32.20;;;30.50;;
40058;SDS011;25763;49.972;8.568;2023-07-30T03:47:40;32.83;;;31.15;;
40058;SDS011;25763;49.972;8.568;2023-07-30T03:50:05;30.70;;;29.10;;
40058;SDS011;25763;49.972;8.568;2023-07-30T03:52:31;31.45;;;29.80;;
40058;SDS011;25763;49.972;8.568;2023-07-30T03:54:56;33.63;;;31.90;;
40058;SDS011;25763;49.972;8.568;2023-07-30T03:57:22;32.20;;;30.48;;
40058;SDS011;25763;49.972;8.568;2023-07-30T03:59:47;27.83;;;26.38;;
40058;SDS011;25763;49.972;8.568;2023-07-30T04:02:12;34.92;;;33.13;;
40058;SDS011;25763;49.972;8.568;2023-07-30T04:04:41;39.45;;;37.42;;
40058;SDS011;25763;49.972;8.568;2023-07-30T04:07:08;43.40;;;41.20;;
40058;SDS011;25763;49.972;8.568;2023-07-30T04:09:34;32.88;;;31.00;;
40058;SDS011;25763;49.972;8.568;2023-07-30T04:11:59;37.50;;;35.60;;
40058;SDS011;25763;49.972;8.568;2023-07-30T04:14:24;32.50;;;30.80;;
40058;SDS011;25763;49.972;8.568;2023-07-30T04:16:50;36.63;;;34.75;;
40058;SDS011;25763;49.972;8.568;2023-07-30T04:19:15;33.50;;;31.45;;
40058;SDS011;25763;49.972;8.568;2023-07-30T04:21:40;34.97;;;33.17;;
40058;SDS011;25763;49.972;8.568;2023-07-30T04:24:06;40.53;;;38.40;;
40058;SDS011;25763;49.972;8.568;2023-07-30T04:26:31;32.92;;;31.13;;
40058;SDS011;25763;49.972;8.568;2023-07-30T04:28:56;37.85;;;35.88;;
40058;SDS011;25763;49.972;8.568;2023-07-30T04:31:22;45.88;;;43.55;;
40058;SDS011;25763;49.972;8.568;2023-07-30T04:33:47;45.30;;;43.00;;
40058;SDS011;25763;49.972;8.568;2023-07-30T04:36:13;37.13;;;35.22;;
40058;SDS011;25763;49.972;8.568;2023-07-30T04:38:38;32.20;;;30.52;;
40058;SDS011;25763;49.972;8.568;2023-07-30T04:41:03;32.85;;;31.13;;
40058;SDS011;25763;49.972;8.568;2023-07-30T04:43:29;28.25;;;26.77;;
40058;SDS011;25763;49.972;8.568;2023-07-30T04:45:54;25.58;;;24.23;;
40058;SDS011;25763;49.972;8.568;2023-07-30T04:48:20;26.67;;;25.17;;
40058;SDS011;25763;49.972;8.568;2023-07-30T04:50:45;30.55;;;28.98;;
40058;SDS011;25763;49.972;8.568;2023-07-30T04:53:10;24.13;;;22.85;;
40058;SDS011;25763;49.972;8.568;2023-07-30T04:55:36;25.30;;;23.92;;
40058;SDS011;25763;49.972;8.568;2023-07-30T04:58:01;28.02;;;26.52;;
40058;SDS011;25763;49.972;8.568;2023-07-30T05:00:28;27.05;;;25.60;;
40058;SDS011;25763;49.972;8.568;2023-07-30T05:02:54;27.08;;;25.63;;
40058;SDS011;25763;49.972;8.568;2023-07-30T05:05:19;26.98;;;25.55;;
40058;SDS011;25763;49.972;8.568;2023-07-30T05:07:44;26.38;;;25.00;;
40058;SDS011;25763;49.972;8.568;2023-07-30T05:10:10;29.02;;;27.50;;
40058;SDS011;25763;49.972;8.568;2023-07-30T05:12:36;26.90;;;25.48;;
40058;SDS011;25763;49.972;8.568;2023-07-30T05:15:02;28.15;;;26.65;;
40058;SDS011;25763;49.972;8.568;2023-07-30T05:17:28;29.58;;;28.00;;
40058;SDS011;25763;49.972;8.568;2023-07-30T05:19:53;26.88;;;25.45;;
40058;SDS011;25763;49.972;8.568;2023-07-30T05:22:19;28.15;;;26.67;;
40058;SDS011;25763;49.972;8.568;2023-07-30T05:24:44;29.17;;;27.63;;
40058;SDS011;25763;49.972;8.568;2023-07-30T05:27:09;29.25;;;27.70;;
40058;SDS011;25763;49.972;8.568;2023-07-30T05:29:35;28.55;;;27.05;;
40058;SDS011;25763;49.972;8.568;2023-07-30T05:32:00;29.13;;;27.63;;
40058;SDS011;25763;49.972;8.568;2023-07-30T05:34:26;31.17;;;29.50;;
40058;SDS011;25763;49.972;8.568;2023-07-30T05:36:51;31.88;;;30.17;;
40058;SDS011;25763;49.972;8.568;2023-07-30T05:39:16;33.88;;;32.10;;
40058;SDS011;25763;49.972;8.568;2023-07-30T05:41:42;35.20;;;33.28;;
40058;SDS011;25763;49.972;8.568;2023-07-30T05:44:07;39.10;;;37.10;;
40058;SDS011;25763;49.972;8.568;2023-07-30T05:46:32;40.50;;;38.38;;
40058;SDS011;25763;49.972;8.568;2023-07-30T05:48:58;41.95;;;39.83;;
40058;SDS011;25763;49.972;8.568;2023-07-30T05:51:23;42.17;;;40.03;;
40058;SDS011;25763;49.972;8.568;2023-07-30T05:53:48;38.13;;;36.17;;
40058;SDS011;25763;49.972;8.568;2023-07-30T05:56:14;43.30;;;41.05;;
40058;SDS011;25763;49.972;8.568;2023-07-30T05:58:43;45.78;;;43.38;;
40058;SDS011;25763;49.972;8.568;2023-07-30T06:01:08;47.60;;;45.20;;
40058;SDS011;25763;49.972;8.568;2023-07-30T06:03:34;50.90;;;48.17;;
40058;SDS011;25763;49.972;8.568;2023-07-30T06:06:00;53.13;;;50.47;;
40058;SDS011;25763;49.972;8.568;2023-07-30T06:08:26;61.80;;;58.70;;
40058;SDS011;25763;49.972;8.568;2023-07-30T06:10:51;69.72;;;66.20;;
40058;SDS011;25763;49.972;8.568;2023-07-30T06:13:17;67.00;;;63.65;;
40058;SDS011;25763;49.972;8.568;2023-07-30T06:15:42;62.58;;;59.42;;
40058;SDS011;25763;49.972;8.568;2023-07-30T06:18:08;68.85;;;65.43;;
40058;SDS011;25763;49.972;8.568;2023-07-30T06:20:33;73.20;;;69.55;;
40058;SDS011;25763;49.972;8.568;2023-07-30T06:22:58;70.50;;;66.82;;
40058;SDS011;25763;49.972;8.568;2023-07-30T06:25:24;78.70;;;74.72;;
40058;SDS011;25763;49.972;8.568;2023-07-30T06:27:49;83.03;;;78.95;;
40058;SDS011;25763;49.972;8.568;2023-07-30T06:30:15;125.55;;;119.35;;
40058;SDS011;25763;49.972;8.568;2023-07-30T06:32:40;77.72;;;73.88;;
40058;SDS011;25763;49.972;8.568;2023-07-30T06:35:05;85.13;;;80.93;;
40058;SDS011;25763;49.972;8.568;2023-07-30T06:37:31;86.50;;;82.25;;
40058;SDS011;25763;49.972;8.568;2023-07-30T06:39:57;90.82;;;86.35;;
40058;SDS011;25763;49.972;8.568;2023-07-30T06:42:23;89.78;;;85.32;;
40058;SDS011;25763;49.972;8.568;2023-07-30T06:44:48;103.47;;;98.30;;
40058;SDS011;25763;49.972;8.568;2023-07-30T06:47:14;103.80;;;98.70;;
40058;SDS011;25763;49.972;8.568;2023-07-30T06:49:40;110.40;;;104.95;;
40058;SDS011;25763;49.972;8.568;2023-07-30T06:52:05;125.80;;;119.55;;
40058;SDS011;25763;49.972;8.568;2023-07-30T06:54:31;116.40;;;110.70;;
40058;SDS011;25763;49.972;8.568;2023-07-30T06:56:56;125.20;;;119.05;;
40058;SDS011;25763;49.972;8.568;2023-07-30T06:59:21;153.15;;;145.70;;
40058;SDS011;25763;49.972;8.568;2023-07-30T07:01:47;154.73;;;147.10;;
40058;SDS011;25763;49.972;8.568;2023-07-30T07:04:12;145.88;;;138.73;;
40058;SDS011;25763;49.972;8.568;2023-07-30T07:06:37;158.25;;;150.50;;
40058;SDS011;25763;49.972;8.568;2023-07-30T07:09:03;155.10;;;147.48;;
40058;SDS011;25763;49.972;8.568;2023-07-30T07:11:28;157.40;;;149.70;;
40058;SDS011;25763;49.972;8.568;2023-07-30T07:13:53;172.63;;;164.27;;
40058;SDS011;25763;49.972;8.568;2023-07-30T07:16:19;149.73;;;142.43;;
40058;SDS011;25763;49.972;8.568;2023-07-30T07:18:44;150.80;;;143.43;;
40058;SDS011;25763;49.972;8.568;2023-07-30T07:21:10;141.00;;;133.93;;
40058;SDS011;25763;49.972;8.568;2023-07-30T07:23:36;157.32;;;149.65;;
40058;SDS011;25763;49.972;8.568;2023-07-30T07:26:01;140.70;;;133.77;;
40058;SDS011;25763;49.972;8.568;2023-07-30T07:28:26;132.30;;;125.82;;
40058;SDS011;25763;49.972;8.568;2023-07-30T07:30:52;123.72;;;117.65;;
40058;SDS011;25763;49.972;8.568;2023-07-30T07:33:17;118.50;;;112.65;;
40058;SDS011;25763;49.972;8.568;2023-07-30T07:35:42;115.32;;;109.63;;
40058;SDS011;25763;49.972;8.568;2023-07-30T07:38:08;72.82;;;69.20;;
40058;SDS011;25763;49.972;8.568;2023-07-30T07:40:39;67.05;;;63.72;;
40058;SDS011;25763;49.972;8.568;2023-07-30T07:43:06;60.25;;;57.22;;
40058;SDS011;25763;49.972;8.568;2023-07-30T07:45:32;62.33;;;58.70;;
40058;SDS011;25763;49.972;8.568;2023-07-30T07:47:57;63.10;;;59.97;;
40058;SDS011;25763;49.972;8.568;2023-07-30T07:50:23;61.88;;;58.75;;
40058;SDS011;25763;49.972;8.568;2023-07-30T07:52:48;64.93;;;61.67;;
40058;SDS011;25763;49.972;8.568;2023-07-30T07:55:13;80.07;;;76.10;;
40058;SDS011;25763;49.972;8.568;2023-07-30T07:57:39;82.18;;;78.13;;
40058;SDS011;25763;49.972;8.568;2023-07-30T08:00:05;83.15;;;79.00;;
40058;SDS011;25763;49.972;8.568;2023-07-30T08:02:31;97.05;;;92.20;;
40058;SDS011;25763;49.972;8.568;2023-07-30T08:04:56;84.75;;;80.50;;
40058;SDS011;25763;49.972;8.568;2023-07-30T08:07:22;79.10;;;75.20;;
40058;SDS011;25763;49.972;8.568;2023-07-30T08:09:47;80.85;;;76.80;;
40058;SDS011;25763;49.972;8.568;2023-07-30T08:12:13;80.05;;;76.10;;
40058;SDS011;25763;49.972;8.568;2023-07-30T08:14:39;85.05;;;80.85;;
40058;SDS011;25763;49.972;8.568;2023-07-30T08:17:05;95.63;;;90.93;;
40058;SDS011;25763;49.972;8.568;2023-07-30T08:19:30;103.25;;;98.15;;
40058;SDS011;25763;49.972;8.568;2023-07-30T08:21:57;131.07;;;124.68;;
40058;SDS011;25763;49.972;8.568;2023-07-30T08:24:24;131.88;;;125.40;;
40058;SDS011;25763;49.972;8.568;2023-07-30T08:26:49;141.35;;;134.40;;
40058;SDS011;25763;49.972;8.568;2023-07-30T08:29:15;134.70;;;128.10;;
40058;SDS011;25763;49.972;8.568;2023-07-30T08:31:40;139.18;;;132.40;;
40058;SDS011;25763;49.972;8.568;2023-07-30T08:34:06;140.30;;;133.40;;
40058;SDS011;25763;49.972;8.568;2023-07-30T08:36:31;152.27;;;144.85;;
40058;SDS011;25763;49.972;8.568;2023-07-30T08:38:57;174.93;;;166.43;;
40058;SDS011;25763;49.972;8.568;2023-07-30T08:41:25;161.45;;;153.55;;
40058;SDS011;25763;49.972;8.568;2023-07-30T08:43:51;166.55;;;158.38;;
40058;SDS011;25763;49.972;8.568;2023-07-30T08:46:17;141.93;;;134.90;;
40058;SDS011;25763;49.972;8.568;2023-07-30T08:48:46;168.82;;;160.52;;
40058;SDS011;25763;49.972;8.568;2023-07-30T08:51:11;165.60;;;157.52;;
40058;SDS011;25763;49.972;8.568;2023-07-30T08:53:38;195.95;;;186.45;;
40058;SDS011;25763;49.972;8.568;2023-07-30T08:56:04;141.93;;;134.98;;
40058;SDS011;25763;49.972;8.568;2023-07-30T08:58:31;216.95;;;206.35;;
40058;SDS011;25763;49.972;8.568;2023-07-30T09:00:58;167.13;;;158.98;;
40058;SDS011;25763;49.972;8.568;2023-07-30T09:03:24;163.95;;;155.88;;
40058;SDS011;25763;49.972;8.568;2023-07-30T09:05:52;178.50;;;169.80;;
40058;SDS011;25763;49.972;8.568;2023-07-30T09:08:17;160.50;;;152.65;;
40058;SDS011;25763;49.972;8.568;2023-07-30T09:10:43;192.88;;;183.43;;
40058;SDS011;25763;49.972;8.568;2023-07-30T09:13:08;152.45;;;144.95;;
40058;SDS011;25763;49.972;8.568;2023-07-30T09:15:37;174.95;;;166.38;;
40058;SDS011;25763;49.972;8.568;2023-07-30T09:18:03;171.70;;;163.27;;
40058;SDS011;25763;49.972;8.568;2023-07-30T09:23:03;139.30;;;132.43;;
40058;SDS011;25763;49.972;8.568;2023-07-30T09:25:28;150.35;;;142.93;;
40058;SDS011;25763;49.972;8.568;2023-07-30T09:27:53;131.48;;;124.97;;
40058;SDS011;25763;49.972;8.568;2023-07-30T09:30:23;67.80;;;64.43;;
40058;SDS011;25763;49.972;8.568;2023-07-30T09:32:53;118.28;;;112.47;;
40058;SDS011;25763;49.972;8.568;2023-07-30T09:37:45;115.72;;;109.93;;
40058;SDS011;25763;49.972;8.568;2023-07-30T09:40:14;124.60;;;118.45;;
40058;SDS011;25763;49.972;8.568;2023-07-30T09:42:44;137.10;;;130.35;;
40058;SDS011;25763;49.972;8.568;2023-07-30T09:45:23;80.90;;;76.88;;
40058;SDS011;25763;49.972;8.568;2023-07-30T09:47:51;66.35;;;63.05;;
40058;SDS011;25763;49.972;8.568;2023-07-30T09:50:17;60.72;;;57.67;;
40058;SDS011;25763;49.972;8.568;2023-07-30T09:52:43;52.65;;;50.00;;
40058;SDS011;25763;49.972;8.568;2023-07-30T09:55:09;51.33;;;48.72;;
40058;SDS011;25763;49.972;8.568;2023-07-30T09:57:35;50.95;;;48.38;;
40058;SDS011;25763;49.972;8.568;2023-07-30T10:00:02;58.47;;;55.55;;
40058;SDS011;25763;49.972;8.568;2023-07-30T10:02:28;74.82;;;71.10;;
40058;SDS011;25763;49.972;8.568;2023-07-30T10:04:57;87.30;;;82.75;;
40058;SDS011;25763;49.972;8.568;2023-07-30T10:07:24;68.20;;;64.75;;
40058;SDS011;25763;49.972;8.568;2023-07-30T10:09:53;55.22;;;52.47;;
40058;SDS011;25763;49.972;8.568;2023-07-30T10:12:23;88.20;;;83.87;;
40058;SDS011;25763;49.972;8.568;2023-07-30T10:14:52;88.32;;;83.97;;
40058;SDS011;25763;49.972;8.568;2023-07-30T10:17:17;73.82;;;70.13;;
40058;SDS011;25763;49.972;8.568;2023-07-30T10:19:46;60.20;;;57.17;;
40058;SDS011;25763;49.972;8.568;2023-07-30T10:24:39;56.65;;;53.80;;
40058;SDS011;25763;49.972;8.568;2023-07-30T10:27:06;75.30;;;71.55;;
40058;SDS011;25763;49.972;8.568;2023-07-30T10:29:38;69.60;;;66.13;;
40058;SDS011;25763;49.972;8.568;2023-07-30T10:32:08;90.78;;;86.22;;
40058;SDS011;25763;49.972;8.568;2023-07-30T10:34:46;86.30;;;82.00;;
40058;SDS011;25763;49.972;8.568;2023-07-30T10:37:19;70.00;;;66.50;;
40058;SDS011;25763;49.972;8.568;2023-07-30T10:39:48;29.50;;;27.90;;
40058;SDS011;25763;49.972;8.568;2023-07-30T10:42:14;26.25;;;24.88;;
40058;SDS011;25763;49.972;8.568;2023-07-30T10:44:43;43.38;;;41.15;;
40058;SDS011;25763;49.972;8.568;2023-07-30T10:47:09;26.15;;;24.73;;
40058;SDS011;25763;49.972;8.568;2023-07-30T10:49:36;30.10;;;28.50;;
40058;SDS011;25763;49.972;8.568;2023-07-30T10:52:03;27.45;;;25.98;;
40058;SDS011;25763;49.972;8.568;2023-07-30T10:54:35;30.65;;;29.05;;
40058;SDS011;25763;49.972;8.568;2023-07-30T10:57:00;49.70;;;47.17;;
40058;SDS011;25763;49.972;8.568;2023-07-30T10:59:32;46.80;;;44.10;;
40058;SDS011;25763;49.972;8.568;2023-07-30T11:01:59;28.48;;;26.98;;
40058;SDS011;25763;49.972;8.568;2023-07-30T11:04:24;34.40;;;32.60;;
40058;SDS011;25763;49.972;8.568;2023-07-30T11:06:50;18.92;;;17.83;;
40058;SDS011;25763;49.972;8.568;2023-07-30T11:09:23;18.30;;;17.30;;
40058;SDS011;25763;49.972;8.568;2023-07-30T11:11:52;27.35;;;25.92;;
40058;SDS011;25763;49.972;8.568;2023-07-30T11:14:19;19.15;;;17.83;;
40058;SDS011;25763;49.972;8.568;2023-07-30T11:16:50;23.02;;;21.80;;
40058;SDS011;25763;49.972;8.568;2023-07-30T11:19:17;13.88;;;13.07;;
40058;SDS011;25763;49.972;8.568;2023-07-30T11:21:46;16.08;;;15.07;;
40058;SDS011;25763;49.972;8.568;2023-07-30T11:24:12;13.35;;;12.55;;
40058;SDS011;25763;49.972;8.568;2023-07-30T11:26:38;14.00;;;13.20;;
40058;SDS011;25763;49.972;8.568;2023-07-30T11:29:15;19.77;;;18.70;;
40058;SDS011;25763;49.972;8.568;2023-07-30T11:31:43;12.13;;;11.40;;
40058;SDS011;25763;49.972;8.568;2023-07-30T11:34:08;11.63;;;10.93;;
40058;SDS011;25763;49.972;8.568;2023-07-30T11:36:34;12.68;;;11.90;;
40058;SDS011;25763;49.972;8.568;2023-07-30T11:38:59;11.85;;;11.15;;
40058;SDS011;25763;49.972;8.568;2023-07-30T11:41:25;13.82;;;13.02;;
40058;SDS011;25763;49.972;8.568;2023-07-30T11:43:52;18.85;;;17.85;;
40058;SDS011;25763;49.972;8.568;2023-07-30T11:46:17;21.85;;;20.60;;
40058;SDS011;25763;49.972;8.568;2023-07-30T11:48:48;14.90;;;14.10;;
40058;SDS011;25763;49.972;8.568;2023-07-30T11:51:27;18.98;;;17.98;;
40058;SDS011;25763;49.972;8.568;2023-07-30T11:53:55;13.07;;;12.10;;
40058;SDS011;25763;49.972;8.568;2023-07-30T11:58:47;18.52;;;17.52;;
40058;SDS011;25763;49.972;8.568;2023-07-30T12:01:17;12.07;;;11.38;;
40058;SDS011;25763;49.972;8.568;2023-07-30T12:03:43;13.85;;;13.05;;
40058;SDS011;25763;49.972;8.568;2023-07-30T12:06:11;17.50;;;16.50;;
40058;SDS011;25763;49.972;8.568;2023-07-30T12:08:37;16.83;;;15.90;;
40058;SDS011;25763;49.972;8.568;2023-07-30T12:11:03;11.75;;;11.05;;
40058;SDS011;25763;49.972;8.568;2023-07-30T12:13:32;15.40;;;14.50;;
40058;SDS011;25763;49.972;8.568;2023-07-30T12:15:59;16.20;;;15.30;;
40058;SDS011;25763;49.972;8.568;2023-07-30T12:18:24;19.33;;;18.23;;
40058;SDS011;25763;49.972;8.568;2023-07-30T12:20:51;18.55;;;17.55;;
40058;SDS011;25763;49.972;8.568;2023-07-30T12:23:18;19.70;;;18.63;;
40058;SDS011;25763;49.972;8.568;2023-07-30T12:25:44;18.08;;;17.08;;
40058;SDS011;25763;49.972;8.568;2023-07-30T12:28:10;31.23;;;29.60;;
40058;SDS011;25763;49.972;8.568;2023-07-30T12:30:36;17.88;;;16.85;;
40058;SDS011;25763;49.972;8.568;2023-07-30T12:33:05;21.67;;;20.50;;
40058;SDS011;25763;49.972;8.568;2023-07-30T12:35:31;22.98;;;21.77;;
40058;SDS011;25763;49.972;8.568;2023-07-30T12:37:57;18.63;;;17.52;;
40058;SDS011;25763;49.972;8.568;2023-07-30T12:40:23;17.38;;;16.38;;
40058;SDS011;25763;49.972;8.568;2023-07-30T12:42:48;13.20;;;12.40;;
40058;SDS011;25763;49.972;8.568;2023-07-30T12:45:14;14.55;;;13.75;;
40058;SDS011;25763;49.972;8.568;2023-07-30T12:47:39;15.63;;;14.73;;
40058;SDS011;25763;49.972;8.568;2023-07-30T12:50:06;20.75;;;19.63;;
40058;SDS011;25763;49.972;8.568;2023-07-30T12:52:32;16.58;;;15.68;;
40058;SDS011;25763;49.972;8.568;2023-07-30T12:54:58;15.55;;;14.65;;
40058;SDS011;25763;49.972;8.568;2023-07-30T12:57:23;21.33;;;19.80;;
40058;SDS011;25763;49.972;8.568;2023-07-30T12:59:48;29.00;;;27.48;;
40058;SDS011;25763;49.972;8.568;2023-07-30T13:02:14;21.67;;;20.45;;
40058;SDS011;25763;49.972;8.568;2023-07-30T13:04:39;20.40;;;19.30;;
40058;SDS011;25763;49.972;8.568;2023-07-30T13:07:04;53.80;;;51.10;;
40058;SDS011;25763;49.972;8.568;2023-07-30T13:09:30;24.90;;;23.60;;
40058;SDS011;25763;49.972;8.568;2023-07-30T13:11:56;73.43;;;69.72;;
40058;SDS011;25763;49.972;8.568;2023-07-30T13:14:21;50.55;;;47.85;;
40058;SDS011;25763;49.972;8.568;2023-07-30T13:16:47;69.57;;;66.13;;
40058;SDS011;25763;49.972;8.568;2023-07-30T13:19:12;79.43;;;75.45;;
40058;SDS011;25763;49.972;8.568;2023-07-30T13:21:37;103.68;;;98.55;;
40058;SDS011;25763;49.972;8.568;2023-07-30T13:24:03;103.55;;;98.50;;
40058;SDS011;25763;49.972;8.568;2023-07-30T13:26:29;121.30;;;115.35;;
40058;SDS011;25763;49.972;8.568;2023-07-30T13:28:54;112.30;;;106.78;;
40058;SDS011;25763;49.972;8.568;2023-07-30T13:31:19;83.82;;;79.70;;
40058;SDS011;25763;49.972;8.568;2023-07-30T13:33:45;138.45;;;131.63;;
40058;SDS011;25763;49.972;8.568;2023-07-30T13:36:12;71.57;;;68.03;;
40058;SDS011;25763;49.972;8.568;2023-07-30T13:38:38;89.07;;;84.60;;
40058;SDS011;25763;49.972;8.568;2023-07-30T13:41:04;57.95;;;55.00;;
40058;SDS011;25763;49.972;8.568;2023-07-30T13:43:30;62.03;;;58.92;;
40058;SDS011;25763;49.972;8.568;2023-07-30T13:45:56;97.85;;;93.05;;
40058;SDS011;25763;49.972;8.568;2023-07-30T13:48:22;58.35;;;55.42;;
40058;SDS011;25763;49.972;8.568;2023-07-30T13:50:48;44.13;;;41.58;;
40058;SDS011;25763;49.972;8.568;2023-07-30T13:53:14;37.92;;;35.97;;
40058;SDS011;25763;49.972;8.568;2023-07-30T13:55:39;37.42;;;35.53;;
40058;SDS011;25763;49.972;8.568;2023-07-30T13:58:04;71.55;;;68.03;;
40058;SDS011;25763;49.972;8.568;2023-07-30T14:00:30;69.65;;;66.20;;
40058;SDS011;25763;49.972;8.568;2023-07-30T14:02:56;107.13;;;101.88;;
40058;SDS011;25763;49.972;8.568;2023-07-30T14:05:21;28.33;;;26.80;;
40058;SDS011;25763;49.972;8.568;2023-07-30T14:07:47;74.72;;;71.00;;
40058;SDS011;25763;49.972;8.568;2023-07-30T14:10:12;90.75;;;86.30;;
40058;SDS011;25763;49.972;8.568;2023-07-30T14:12:38;104.18;;;99.07;;
40058;SDS011;25763;49.972;8.568;2023-07-30T14:15:03;77.65;;;73.82;;
40058;SDS011;25763;49.972;8.568;2023-07-30T14:17:29;100.35;;;95.43;;
40058;SDS011;25763;49.972;8.568;2023-07-30T14:19:55;27.95;;;26.50;;